Time;durP1;ratioP1;P1;durP2;ratioP2;P2;SDS_P1;SDS_P2;PMS_P1;PMS_P2;Temp;Humidity;BMP_temperature;BMP_pressure;BME280_temperature;BME280_humidity;BME280_pressure;Samples;Min_cycle;Max_cycle;Signal;HPM_P1;HPM_P2
2023/08/03 00:00:51;;;;;;;4.03;1.60;;;;;;;;;;5048803;28;20973;-62
2023/08/03 00:03:17;;;;;;;2.83;1.40;;;;;;;;;;5057878;28;20057;-64
2023/08/03 00:05:44;;;;;;;1.63;1.50;;;;;;;;;;5061567;28;20099;-63
2023/08/03 00:08:11;;;;;;;3.60;1.80;;;;;;;;;;5050326;28;20440;-64
2023/08/03 00:10:37;;;;;;;3.67;1.60;;;;;;;;;;5043024;28;20140;-63
2023/08/03 00:13:04;;;;;;;5.18;1.88;;;;;;;;;;5049313;28;20054;-62
2023/08/03 00:15:30;;;;;;;2.42;1.75;;;;;;;;;;5042569;28;20520;-64
2023/08/03 00:17:57;;;;;;;9.93;2.10;;;;;;;;;;5040358;28;20103;-63
2023/08/03 00:20:23;;;;;;;3.67;2.05;;;;;;;;;;5055810;28;20136;-64
2023/08/03 00:22:50;;;;;;;4.25;2.00;;;;;;;;;;5055589;28;20553;-65
2023/08/03 00:25:16;;;;;;;3.95;2.03;;;;;;;;;;5041420;28;20050;-59
2023/08/03 00:27:42;;;;;;;6.18;2.13;;;;;;;;;;5042389;28;20133;-61
2023/08/03 00:30:09;;;;;;;6.13;2.30;;;;;;;;;;5042657;28;20140;-63
2023/08/03 00:32:35;;;;;;;5.18;2.83;;;;;;;;;;5046745;28;20606;-65
2023/08/03 00:35:02;;;;;;;3.85;1.98;;;;;;;;;;5042029;28;20243;-63
2023/08/03 00:37:29;;;;;;;12.52;3.05;;;;;;;;;;5054290;28;20065;-65
2023/08/03 00:39:55;;;;;;;8.27;2.40;;;;;;;;;;5045106;28;20057;-60
2023/08/03 00:42:22;;;;;;;8.30;2.55;;;;;;;;;;5045413;28;20053;-63
2023/08/03 00:44:48;;;;;;;6.38;2.60;;;;;;;;;;5060758;28;20519;-65
2023/08/03 00:47:14;;;;;;;16.73;2.90;;;;;;;;;;5050965;28;20149;-65
2023/08/03 00:49:41;;;;;;;11.32;2.90;;;;;;;;;;5046242;28;20531;-64
2023/08/03 00:52:07;;;;;;;9.07;2.40;;;;;;;;;;5051927;28;20561;-65
2023/08/03 00:54:35;;;;;;;8.98;2.00;;;;;;;;;;5064367;28;20064;-63
2023/08/03 00:57:02;;;;;;;6.47;1.90;;;;;;;;;;5065233;28;20515;-64
2023/08/03 00:59:28;;;;;;;5.60;2.17;;;;;;;;;;5064417;28;20508;-63
2023/08/03 01:01:55;;;;;;;6.65;2.20;;;;;;;;;;5059977;28;20553;-63
2023/08/03 01:04:21;;;;;;;6.25;2.70;;;;;;;;;;5047679;28;20056;-65
2023/08/03 01:06:47;;;;;;;10.43;2.17;;;;;;;;;;5064340;28;20080;-65
2023/08/03 01:09:14;;;;;;;5.53;1.60;;;;;;;;;;5050715;28;20085;-63
2023/08/03 01:11:41;;;;;;;7.75;1.80;;;;;;;;;;5044488;28;20475;-65
2023/08/03 01:14:08;;;;;;;4.55;1.83;;;;;;;;;;5061724;28;20048;-64
2023/08/03 01:16:34;;;;;;;6.13;1.70;;;;;;;;;;5056280;28;20551;-64
2023/08/03 01:19:01;;;;;;;9.45;2.13;;;;;;;;;;5052436;28;20448;-64
2023/08/03 01:21:27;;;;;;;15.40;2.50;;;;;;;;;;5043444;28;20061;-64
2023/08/03 01:23:54;;;;;;;11.02;2.67;;;;;;;;;;5051888;28;20083;-64
2023/08/03 01:26:20;;;;;;;7.35;2.05;;;;;;;;;;5050919;28;20053;-63
2023/08/03 01:28:47;;;;;;;9.77;2.85;;;;;;;;;;5044960;28;20515;-62
2023/08/03 01:31:14;;;;;;;9.93;2.55;;;;;;;;;;5048406;28;20045;-65
2023/08/03 01:33:40;;;;;;;10.15;2.08;;;;;;;;;;5059690;28;20049;-65
2023/08/03 01:36:07;;;;;;;9.23;1.90;;;;;;;;;;5045451;28;20104;-65
2023/08/03 01:38:33;;;;;;;11.43;2.20;;;;;;;;;;5051418;28;20084;-60
2023/08/03 01:41:00;;;;;;;6.80;1.83;;;;;;;;;;5054645;28;20058;-64
2023/08/03 01:43:26;;;;;;;3.97;1.65;;;;;;;;;;5050703;28;20049;-62
2023/08/03 01:45:53;;;;;;;9.70;1.90;;;;;;;;;;5046141;28;20156;-60
2023/08/03 01:48:19;;;;;;;8.88;1.85;;;;;;;;;;5062597;28;20048;-63
2023/08/03 01:50:46;;;;;;;9.02;2.40;;;;;;;;;;5053064;28;20053;-61
2023/08/03 01:53:15;;;;;;;10.75;2.40;;;;;;;;;;5047327;28;20049;-63
2023/08/03 01:55:41;;;;;;;5.38;1.73;;;;;;;;;;5062327;28;20056;-64
2023/08/03 01:58:08;;;;;;;9.82;2.60;;;;;;;;;;5060508;28;20566;-64
2023/08/03 02:00:34;;;;;;;6.65;2.13;;;;;;;;;;5057062;28;20053;-63
2023/08/03 02:03:00;;;;;;;8.90;2.63;;;;;;;;;;5064350;28;20053;-64
2023/08/03 02:05:27;;;;;;;6.55;2.08;;;;;;;;;;5054164;28;20541;-64
2023/08/03 02:07:53;;;;;;;11.70;3.95;;;;;;;;;;5053960;28;20088;-61
2023/08/03 02:10:21;;;;;;;8.38;2.67;;;;;;;;;;5043531;28;20053;-62
2023/08/03 02:12:48;;;;;;;13.40;3.13;;;;;;;;;;5053665;28;20698;-61
2023/08/03 02:15:15;;;;;;;9.13;2.90;;;;;;;;;;5053920;28;20574;-64
2023/08/03 02:17:42;;;;;;;13.77;2.80;;;;;;;;;;5057219;28;20186;-64
2023/08/03 02:20:09;;;;;;;8.15;3.10;;;;;;;;;;5062741;28;20078;-62
2023/08/03 02:22:35;;;;;;;6.30;2.90;;;;;;;;;;5056836;28;20064;-64
2023/08/03 02:25:02;;;;;;;8.38;2.35;;;;;;;;;;5059850;28;20056;-63
2023/08/03 02:27:29;;;;;;;6.35;2.58;;;;;;;;;;5062452;28;20140;-61
2023/08/03 02:29:56;;;;;;;10.15;3.05;;;;;;;;;;5052924;28;20091;-64
2023/08/03 02:32:24;;;;;;;4.80;2.80;;;;;;;;;;5057065;28;20080;-65
2023/08/03 02:34:50;;;;;;;9.65;3.30;;;;;;;;;;5046655;28;20060;-64
2023/08/03 02:37:17;;;;;;;10.38;3.65;;;;;;;;;;5048503;28;20057;-65
2023/08/03 02:39:43;;;;;;;10.10;3.03;;;;;;;;;;5047782;28;20111;-61
2023/08/03 02:42:09;;;;;;;11.80;2.90;;;;;;;;;;5058602;28;20570;-65
2023/08/03 02:44:36;;;;;;;13.02;3.10;;;;;;;;;;5057348;28;20172;-64
2023/08/03 02:47:03;;;;;;;7.05;3.25;;;;;;;;;;5052444;28;20598;-60
2023/08/03 02:49:29;;;;;;;15.15;5.20;;;;;;;;;;5062749;28;20053;-64
2023/08/03 02:51:56;;;;;;;6.97;3.13;;;;;;;;;;5052133;28;20054;-64
2023/08/03 02:54:22;;;;;;;10.93;3.13;;;;;;;;;;5047510;28;20126;-63
2023/08/03 02:56:48;;;;;;;17.38;3.50;;;;;;;;;;5063312;28;20056;-63
2023/08/03 02:59:18;;;;;;;9.63;3.38;;;;;;;;;;5061275;28;20064;-64
2023/08/03 03:01:45;;;;;;;16.88;3.53;;;;;;;;;;5053859;28;20104;-64
2023/08/03 03:04:12;;;;;;;12.70;3.58;;;;;;;;;;5042456;28;20050;-64
2023/08/03 03:06:39;;;;;;;14.25;4.18;;;;;;;;;;5052302;28;20405;-62
2023/08/03 03:09:05;;;;;;;15.80;2.72;;;;;;;;;;5057964;28;20051;-63
2023/08/03 03:11:31;;;;;;;6.07;3.20;;;;;;;;;;5060361;28;20570;-65
2023/08/03 03:13:58;;;;;;;12.80;3.67;;;;;;;;;;5063421;28;20060;-62
2023/08/03 03:16:25;;;;;;;11.27;3.25;;;;;;;;;;5043087;28;20527;-61
2023/08/03 03:18:52;;;;;;;13.57;2.90;;;;;;;;;;5042364;28;20499;-62
2023/08/03 03:21:20;;;;;;;14.85;3.92;;;;;;;;;;5055716;28;20088;-64
2023/08/03 03:23:47;;;;;;;8.07;2.53;;;;;;;;;;5042746;28;20088;-61
2023/08/03 03:26:13;;;;;;;15.02;2.83;;;;;;;;;;5050633;28;20531;-64
2023/08/03 03:28:40;;;;;;;12.65;3.38;;;;;;;;;;5048044;28;20061;-61
2023/08/03 03:31:06;;;;;;;12.07;3.17;;;;;;;;;;5054026;28;20057;-63
2023/08/03 03:33:33;;;;;;;14.38;3.35;;;;;;;;;;5050816;28;20507;-60
2023/08/03 03:35:59;;;;;;;10.80;2.92;;;;;;;;;;5042543;28;20520;-63
2023/08/03 03:38:26;;;;;;;12.88;3.53;;;;;;;;;;5059058;28;20463;-61
2023/08/03 03:40:52;;;;;;;5.40;3.20;;;;;;;;;;5060878;28;20495;-65
2023/08/03 03:43:18;;;;;;;8.43;3.03;;;;;;;;;;5046928;28;20049;-64
2023/08/03 03:45:45;;;;;;;13.10;2.72;;;;;;;;;;5051194;28;20143;-61
2023/08/03 03:48:11;;;;;;;9.50;2.38;;;;;;;;;;5056741;28;20507;-64
2023/08/03 03:50:38;;;;;;;8.57;2.88;;;;;;;;;;5056073;28;20527;-64
2023/08/03 03:53:04;;;;;;;9.60;2.75;;;;;;;;;;5054106;28;20053;-61
2023/08/03 03:55:31;;;;;;;7.75;2.80;;;;;;;;;;5048331;28;20131;-65
2023/08/03 03:58:00;;;;;;;4.60;2.42;;;;;;;;;;5042485;28;20083;-64
2023/08/03 04:00:27;;;;;;;7.38;2.30;;;;;;;;;;5044683;28;20058;-63
2023/08/03 04:02:53;;;;;;;10.68;2.40;;;;;;;;;;5054687;28;20054;-62
2023/08/03 04:05:20;;;;;;;8.52;2.60;;;;;;;;;;5043313;28;20144;-64
2023/08/03 04:07:46;;;;;;;4.25;2.05;;;;;;;;;;5057942;28;20048;-61
2023/08/03 04:10:12;;;;;;;7.82;2.50;;;;;;;;;;5055304;28;20053;-63
2023/08/03 04:12:39;;;;;;;5.78;2.75;;;;;;;;;;5053072;28;20057;-64
2023/08/03 04:15:06;;;;;;;5.43;2.72;;;;;;;;;;5058356;28;20053;-65
2023/08/03 04:17:33;;;;;;;6.82;2.65;;;;;;;;;;5046964;28;20053;-62
2023/08/03 04:20:00;;;;;;;8.35;2.53;;;;;;;;;;5054679;28;20518;-63
2023/08/03 04:22:26;;;;;;;8.13;3.20;;;;;;;;;;5057387;28;20492;-62
2023/08/03 04:24:53;;;;;;;6.35;3.10;;;;;;;;;;5048962;28;20075;-64
2023/08/03 04:27:19;;;;;;;7.00;3.05;;;;;;;;;;5060732;28;20594;-65
2023/08/03 04:29:45;;;;;;;6.53;3.00;;;;;;;;;;5060926;28;20140;-63
2023/08/03 04:32:12;;;;;;;6.50;2.33;;;;;;;;;;5053998;28;20053;-64
2023/08/03 04:34:38;;;;;;;3.15;2.33;;;;;;;;;;5065129;28;20059;-65
2023/08/03 04:37:05;;;;;;;2.83;2.03;;;;;;;;;;5065059;28;20503;-64
2023/08/03 04:39:31;;;;;;;5.22;2.05;;;;;;;;;;5062150;28;21133;-64
2023/08/03 04:41:57;;;;;;;5.93;2.17;;;;;;;;;;5045016;28;20052;-64
2023/08/03 04:44:24;;;;;;;5.20;2.03;;;;;;;;;;5061839;28;20057;-60
2023/08/03 04:46:50;;;;;;;3.90;2.47;;;;;;;;;;5046103;28;20053;-64
2023/08/03 04:49:17;;;;;;;7.32;2.45;;;;;;;;;;5045352;28;20069;-65
2023/08/03 04:51:43;;;;;;;5.28;2.53;;;;;;;;;;5044007;28;20112;-63
2023/08/03 04:54:13;;;;;;;4.85;2.65;;;;;;;;;;5045395;28;20064;-65
2023/08/03 04:56:39;;;;;;;9.25;2.20;;;;;;;;;;5046891;28;20076;-65
2023/08/03 04:59:06;;;;;;;10.55;2.30;;;;;;;;;;5060573;28;20509;-63
2023/08/03 05:01:32;;;;;;;4.20;2.25;;;;;;;;;;5055653;28;20056;-63
2023/08/03 05:04:02;;;;;;;9.93;2.33;;;;;;;;;;5050820;28;20389;-65
2023/08/03 05:06:29;;;;;;;3.67;2.13;;;;;;;;;;5053002;28;20518;-65
2023/08/03 05:08:56;;;;;;;5.10;2.15;;;;;;;;;;5053482;28;20067;-63
2023/08/03 05:11:22;;;;;;;9.20;2.15;;;;;;;;;;5053729;28;20064;-64
2023/08/03 05:13:48;;;;;;;7.47;2.10;;;;;;;;;;5063231;28;20052;-65
2023/08/03 05:16:19;;;;;;;7.05;2.40;;;;;;;;;;5045255;28;20045;-63
2023/08/03 05:18:46;;;;;;;4.70;2.03;;;;;;;;;;5045262;28;20065;-62
2023/08/03 05:21:13;;;;;;;8.20;2.50;;;;;;;;;;5066751;28;20063;-65
2023/08/03 05:23:39;;;;;;;7.72;2.25;;;;;;;;;;5068124;28;20057;-62
2023/08/03 05:26:05;;;;;;;7.38;2.10;;;;;;;;;;5064780;28;20144;-64
2023/08/03 05:28:32;;;;;;;9.82;2.25;;;;;;;;;;5063286;28;20543;-63
2023/08/03 05:30:58;;;;;;;7.00;1.90;;;;;;;;;;5056099;28;20057;-61
2023/08/03 05:33:26;;;;;;;7.50;2.30;;;;;;;;;;5044399;28;20513;-64
2023/08/03 05:35:52;;;;;;;5.32;1.67;;;;;;;;;;5044669;28;20140;-64
2023/08/03 05:38:19;;;;;;;7.45;2.20;;;;;;;;;;5062273;28;20053;-64
2023/08/03 05:40:45;;;;;;;5.70;2.00;;;;;;;;;;5060830;28;20166;-63
2023/08/03 05:43:13;;;;;;;8.38;2.60;;;;;;;;;;5063007;28;20498;-65
2023/08/03 05:45:39;;;;;;;8.20;2.20;;;;;;;;;;5062711;28;20152;-63
2023/08/03 05:48:13;;;;;;;9.50;2.60;;;;;;;;;;5064632;28;20057;-64
2023/08/03 05:50:43;;;;;;;8.65;2.65;;;;;;;;;;5064217;28;20107;-62
2023/08/03 05:53:10;;;;;;;15.07;3.15;;;;;;;;;;5062777;28;20518;-65
2023/08/03 05:55:38;;;;;;;11.50;2.65;;;;;;;;;;5044250;28;20589;-64
2023/08/03 05:58:05;;;;;;;6.93;2.42;;;;;;;;;;5046918;28;20057;-65
2023/08/03 06:00:31;;;;;;;9.30;2.58;;;;;;;;;;5059736;28;20061;-61
2023/08/03 06:02:59;;;;;;;8.93;2.40;;;;;;;;;;5051860;28;20058;-63
2023/08/03 06:05:32;;;;;;;15.88;2.90;;;;;;;;;;5055125;28;20052;-65
2023/08/03 06:07:58;;;;;;;10.18;2.65;;;;;;;;;;5059572;28;20049;-64
2023/08/03 06:10:25;;;;;;;12.35;2.90;;;;;;;;;;5064319;28;20107;-64
2023/08/03 06:12:51;;;;;;;8.02;2.10;;;;;;;;;;5062413;28;20080;-61
2023/08/03 06:15:18;;;;;;;10.75;2.22;;;;;;;;;;5062863;28;20053;-63
2023/08/03 06:17:44;;;;;;;12.38;2.33;;;;;;;;;;5046915;28;20085;-63
2023/08/03 06:20:12;;;;;;;13.40;2.92;;;;;;;;;;5049420;28;20057;-63
2023/08/03 06:22:38;;;;;;;10.57;3.03;;;;;;;;;;5055330;28;20050;-64
2023/08/03 06:25:07;;;;;;;12.20;2.72;;;;;;;;;;5055271;28;20085;-62
2023/08/03 06:27:33;;;;;;;10.77;3.00;;;;;;;;;;5062275;28;20053;-60
2023/08/03 06:29:59;;;;;;;8.10;2.17;;;;;;;;;;5047613;28;20053;-64
2023/08/03 06:32:28;;;;;;;9.85;3.33;;;;;;;;;;5043900;28;20081;-63
2023/08/03 06:34:56;;;;;;;11.35;2.15;;;;;;;;;;5043991;28;20053;-64
2023/08/03 06:37:22;;;;;;;14.30;2.30;;;;;;;;;;5043885;28;20492;-64
2023/08/03 06:39:50;;;;;;;13.98;3.15;;;;;;;;;;5047896;28;20058;-63
2023/08/03 06:42:16;;;;;;;10.85;2.55;;;;;;;;;;5055781;28;20527;-63
2023/08/03 06:44:43;;;;;;;13.85;2.65;;;;;;;;;;5062536;28;20504;-64
2023/08/03 06:47:09;;;;;;;7.70;3.15;;;;;;;;;;5063156;28;20543;-63
2023/08/03 06:49:36;;;;;;;13.00;2.53;;;;;;;;;;5063117;28;20134;-62
2023/08/03 06:52:02;;;;;;;10.20;2.20;;;;;;;;;;5061348;28;20057;-61
2023/08/03 06:54:29;;;;;;;11.70;3.05;;;;;;;;;;5043734;28;20622;-64
2023/08/03 06:56:56;;;;;;;9.00;2.67;;;;;;;;;;5052079;28;20053;-65
2023/08/03 06:59:22;;;;;;;8.20;2.53;;;;;;;;;;5055526;28;20057;-62
2023/08/03 07:01:49;;;;;;;4.78;1.80;;;;;;;;;;5061788;28;20089;-64
2023/08/03 07:04:16;;;;;;;8.70;2.25;;;;;;;;;;5060754;28;20144;-61
2023/08/03 07:06:47;;;;;;;13.18;2.22;;;;;;;;;;5057280;28;20687;-66
2023/08/03 07:09:13;;;;;;;13.40;2.28;;;;;;;;;;5046111;28;20063;-64
2023/08/03 07:11:39;;;;;;;7.80;2.47;;;;;;;;;;5052728;28;20530;-64
2023/08/03 07:14:08;;;;;;;7.07;1.65;;;;;;;;;;5062274;28;20064;-64
2023/08/03 07:16:36;;;;;;;1.90;1.08;;;;;;;;;;5064492;28;20130;-63
2023/08/03 07:19:06;;;;;;;4.10;1.50;;;;;;;;;;5054834;28;20079;-60
2023/08/03 07:21:32;;;;;;;4.68;1.35;;;;;;;;;;5061947;28;20462;-64
2023/08/03 07:23:58;;;;;;;6.25;1.67;;;;;;;;;;5073623;28;20052;-63
2023/08/03 07:26:25;;;;;;;7.50;1.83;;;;;;;;;;5075327;28;20083;-64
2023/08/03 07:28:51;;;;;;;5.18;1.60;;;;;;;;;;5073513;28;20148;-64
2023/08/03 07:31:17;;;;;;;2.45;1.20;;;;;;;;;;5082332;28;20139;-61
2023/08/03 07:33:44;;;;;;;4.05;1.30;;;;;;;;;;5054274;28;20049;-64
2023/08/03 07:36:17;;;;;;;2.78;1.40;;;;;;;;;;5051773;28;20056;-63
2023/08/03 07:38:43;;;;;;;2.70;1.27;;;;;;;;;;5055833;28;20059;-63
2023/08/03 07:41:10;;;;;;;3.55;1.75;;;;;;;;;;5062234;28;20048;-64
2023/08/03 07:43:36;;;;;;;2.97;1.48;;;;;;;;;;5069977;28;21006;-65
2023/08/03 07:46:03;;;;;;;3.05;1.83;;;;;;;;;;5062140;28;20150;-61
2023/08/03 07:48:29;;;;;;;3.95;1.92;;;;;;;;;;5046262;28;20045;-62
2023/08/03 07:50:56;;;;;;;5.22;1.92;;;;;;;;;;5042864;28;20081;-64
2023/08/03 07:53:22;;;;;;;6.28;2.25;;;;;;;;;;5065581;28;20182;-62
2023/08/03 07:55:48;;;;;;;3.40;2.05;;;;;;;;;;5062781;28;20158;-63
2023/08/03 07:58:15;;;;;;;6.07;1.90;;;;;;;;;;5052905;28;20064;-64
2023/08/03 08:00:41;;;;;;;4.82;1.92;;;;;;;;;;5065158;28;20055;-63
2023/08/03 08:03:08;;;;;;;5.47;2.15;;;;;;;;;;5062784;28;20060;-63
2023/08/03 08:05:35;;;;;;;6.93;1.98;;;;;;;;;;5061238;28;20138;-64
2023/08/03 08:08:01;;;;;;;7.00;1.92;;;;;;;;;;5063123;28;20274;-66
2023/08/03 08:10:27;;;;;;;6.22;2.30;;;;;;;;;;5071511;28;20059;-61
2023/08/03 08:12:54;;;;;;;5.65;1.90;;;;;;;;;;5052584;28;20591;-65
2023/08/03 08:15:20;;;;;;;6.70;2.22;;;;;;;;;;5052488;28;20061;-62
2023/08/03 08:17:47;;;;;;;7.28;2.22;;;;;;;;;;5059093;28;20053;-62
2023/08/03 08:20:13;;;;;;;4.30;2.10;;;;;;;;;;5060049;28;20150;-61
2023/08/03 08:22:40;;;;;;;6.78;2.30;;;;;;;;;;5064460;28;20064;-64
2023/08/03 08:25:06;;;;;;;6.65;3.03;;;;;;;;;;5070066;28;20339;-65
2023/08/03 08:27:33;;;;;;;7.93;2.75;;;;;;;;;;5076390;28;20052;-60
2023/08/03 08:30:00;;;;;;;9.18;3.35;;;;;;;;;;5065065;28;20092;-62
2023/08/03 08:32:27;;;;;;;8.50;3.28;;;;;;;;;;5052231;28;20058;-63
2023/08/03 08:34:53;;;;;;;6.70;3.50;;;;;;;;;;5062666;28;20060;-63
2023/08/03 08:37:21;;;;;;;10.10;3.45;;;;;;;;;;5045103;28;20108;-62
2023/08/03 08:39:47;;;;;;;11.30;3.35;;;;;;;;;;5059104;28;20122;-62
2023/08/03 08:42:15;;;;;;;8.18;3.20;;;;;;;;;;5062911;28;20057;-64
2023/08/03 08:44:41;;;;;;;14.13;4.50;;;;;;;;;;5067699;28;20151;-63
2023/08/03 08:47:08;;;;;;;10.35;3.63;;;;;;;;;;5065590;28;20056;-65
2023/08/03 08:49:34;;;;;;;12.63;3.78;;;;;;;;;;5056022;28;20057;-65
2023/08/03 08:52:05;;;;;;;8.70;2.70;;;;;;;;;;5046947;28;20132;-63
2023/08/03 08:54:33;;;;;;;5.35;2.45;;;;;;;;;;5058956;28;20344;-67
2023/08/03 08:57:03;;;;;;;9.27;3.17;;;;;;;;;;5070384;28;20057;-67
2023/08/03 08:59:36;;;;;;;6.75;2.58;;;;;;;;;;5056982;28;20055;-66
2023/08/03 09:02:03;;;;;;;11.80;3.13;;;;;;;;;;5067362;28;20060;-63
2023/08/03 09:04:30;;;;;;;12.15;3.17;;;;;;;;;;5065083;28;20057;-63
2023/08/03 09:06:59;;;;;;;12.95;3.40;;;;;;;;;;5044443;28;20144;-66
2023/08/03 09:09:35;;;;;;;7.10;2.83;;;;;;;;;;5060147;28;20596;-67
2023/08/03 09:12:03;;;;;;;4.93;2.50;;;;;;;;;;5080063;28;20421;-67
2023/08/03 09:14:31;;;;;;;9.45;3.05;;;;;;;;;;5060030;28;20138;-61
2023/08/03 09:17:17;;;;;;;6.97;2.80;;;;;;;;;;5054393;28;20053;-63
2023/08/03 09:19:45;;;;;;;9.55;2.83;;;;;;;;;;5057148;28;20054;-61
2023/08/03 09:22:15;;;;;;;5.75;2.28;;;;;;;;;;5043160;28;20144;-65
2023/08/03 09:25:05;;;;;;;5.03;2.33;;;;;;;;;;5085129;27;20059;-65
2023/08/03 09:27:32;;;;;;;4.70;2.20;;;;;;;;;;5064119;28;20560;-63
2023/08/03 09:30:03;;;;;;;6.55;1.98;;;;;;;;;;5061962;28;21030;-66
2023/08/03 09:32:40;;;;;;;6.97;2.28;;;;;;;;;;5057375;28;20275;-66
2023/08/03 09:35:23;;;;;;;6.47;1.70;;;;;;;;;;5061639;28;20363;-66
2023/08/03 09:37:51;;;;;;;6.53;2.05;;;;;;;;;;5062088;28;20056;-64
2023/08/03 09:40:19;;;;;;;3.75;1.65;;;;;;;;;;5059270;28;20048;-64
2023/08/03 09:42:47;;;;;;;6.53;2.10;;;;;;;;;;5063950;28;20148;-62
2023/08/03 09:45:15;;;;;;;6.03;2.00;;;;;;;;;;5052687;28;20057;-63
2023/08/03 09:47:45;;;;;;;8.02;2.13;;;;;;;;;;5063597;28;20064;-66
2023/08/03 09:50:12;;;;;;;5.20;1.90;;;;;;;;;;5067901;28;20423;-67
2023/08/03 09:52:46;;;;;;;6.07;2.22;;;;;;;;;;5060313;28;20076;-66
2023/08/03 09:55:26;;;;;;;7.05;2.03;;;;;;;;;;5061580;28;20110;-61
2023/08/03 09:58:00;;;;;;;4.53;2.30;;;;;;;;;;5052376;28;20048;-62
2023/08/03 10:00:28;;;;;;;6.82;2.75;;;;;;;;;;5069193;28;20057;-66
2023/08/03 10:03:03;;;;;;;6.63;2.83;;;;;;;;;;5066735;28;20140;-66
2023/08/03 10:05:30;;;;;;;6.32;3.03;;;;;;;;;;5060857;28;20715;-67
2023/08/03 10:08:05;;;;;;;5.25;2.63;;;;;;;;;;5055040;28;20610;-67
2023/08/03 10:10:35;;;;;;;5.47;2.50;;;;;;;;;;5045854;28;20077;-62
2023/08/03 10:13:02;;;;;;;5.20;2.92;;;;;;;;;;5045081;28;20131;-63
2023/08/03 10:15:29;;;;;;;10.25;3.05;;;;;;;;;;5058347;28;20059;-66
2023/08/03 10:17:57;;;;;;;6.78;2.63;;;;;;;;;;5065078;28;20053;-62
2023/08/03 10:20:24;;;;;;;10.20;2.75;;;;;;;;;;5062989;28;20110;-67
2023/08/03 10:23:09;;;;;;;12.55;2.85;;;;;;;;;;5056291;28;20781;-68
2023/08/03 10:25:54;;;;;;;6.43;1.98;;;;;;;;;;5060176;28;20064;-67
2023/08/03 10:28:25;;;;;;;6.57;1.83;;;;;;;;;;5061337;28;20049;-67
2023/08/03 10:31:01;;;;;;;8.13;2.58;;;;;;;;;;5065560;28;20103;-65
2023/08/03 10:33:47;;;;;;;2.20;1.02;;;;;;;;;;5058858;28;20053;-66
2023/08/03 10:36:33;;;;;;;3.50;1.00;;;;;;;;;;5062087;28;20056;-62
2023/08/03 10:39:07;;;;;;;3.13;1.00;;;;;;;;;;5045904;28;20130;-64
2023/08/03 10:41:36;;;;;;;4.32;1.23;;;;;;;;;;5059269;28;20134;-61
2023/08/03 10:44:09;;;;;;;3.17;1.20;;;;;;;;;;5059621;28;20098;-59
2023/08/03 10:46:39;;;;;;;9.45;1.25;;;;;;;;;;5057884;28;20058;-66
2023/08/03 10:49:22;;;;;;;2.03;0.90;;;;;;;;;;5053188;28;20226;-67
2023/08/03 10:52:13;;;;;;;2.45;1.15;;;;;;;;;;5062883;28;20495;-63
2023/08/03 10:54:39;;;;;;;5.85;1.30;;;;;;;;;;5052781;28;20053;-67
2023/08/03 10:57:07;;;;;;;2.83;1.23;;;;;;;;;;5047802;28;20653;-65
2023/08/03 10:59:41;;;;;;;3.28;1.10;;;;;;;;;;5047020;28;20100;-60
2023/08/03 11:02:09;;;;;;;6.32;1.67;;;;;;;;;;5063243;28;20546;-64
2023/08/03 11:04:36;;;;;;;11.98;2.17;;;;;;;;;;5060279;28;20055;-67
2023/08/03 11:07:03;;;;;;;8.70;1.90;;;;;;;;;;5072992;28;20500;-66
2023/08/03 11:09:30;;;;;;;8.88;2.47;;;;;;;;;;5047071;28;20148;-66
2023/08/03 11:11:57;;;;;;;7.50;2.20;;;;;;;;;;5049509;28;20052;-62
2023/08/03 11:14:24;;;;;;;7.30;1.73;;;;;;;;;;5053370;28;20063;-61
2023/08/03 11:16:51;;;;;;;9.30;1.83;;;;;;;;;;5061960;28;20593;-67
2023/08/03 11:19:17;;;;;;;4.88;1.55;;;;;;;;;;5058779;28;20256;-66
2023/08/03 11:21:44;;;;;;;5.90;1.73;;;;;;;;;;5060480;28;20061;-65
2023/08/03 11:24:10;;;;;;;4.82;1.67;;;;;;;;;;5062437;28;20083;-65
2023/08/03 11:26:37;;;;;;;3.42;1.25;;;;;;;;;;5062305;28;20582;-67
2023/08/03 11:29:06;;;;;;;5.13;1.67;;;;;;;;;;5062312;28;20056;-63
2023/08/03 11:31:32;;;;;;;1.73;1.10;;;;;;;;;;5062632;28;20087;-63
2023/08/03 11:33:59;;;;;;;3.90;1.20;;;;;;;;;;5059745;28;20052;-61
2023/08/03 11:36:26;;;;;;;2.05;1.15;;;;;;;;;;5062475;28;20566;-66
2023/08/03 11:38:52;;;;;;;2.97;0.90;;;;;;;;;;5062745;28;20056;-63
2023/08/03 11:41:19;;;;;;;6.65;1.05;;;;;;;;;;5059054;28;20110;-65
2023/08/03 11:43:58;;;;;;;3.72;1.23;;;;;;;;;;5062703;28;20195;-60
2023/08/03 11:46:27;;;;;;;2.15;1.10;;;;;;;;;;5061028;28;20535;-62
2023/08/03 11:48:58;;;;;;;6.07;1.10;;;;;;;;;;5066028;28;20056;-65
2023/08/03 11:51:35;;;;;;;3.55;1.05;;;;;;;;;;5070573;28;20049;-62
2023/08/03 11:54:09;;;;;;;2.20;0.98;;;;;;;;;;5063004;28;20057;-66
2023/08/03 11:56:39;;;;;;;3.67;1.20;;;;;;;;;;5056762;28;20049;-66
2023/08/03 11:59:08;;;;;;;4.43;1.15;;;;;;;;;;5056766;28;20057;-66
2023/08/03 12:01:48;;;;;;;7.47;1.30;;;;;;;;;;5067781;28;20495;-65
2023/08/03 12:04:16;;;;;;;6.20;1.00;;;;;;;;;;5056595;28;20079;-66
2023/08/03 12:06:47;;;;;;;2.90;1.13;;;;;;;;;;5060615;28;20063;-66
2023/08/03 12:09:17;;;;;;;1.83;0.80;;;;;;;;;;5062703;28;20049;-61
2023/08/03 12:11:44;;;;;;;2.03;0.60;;;;;;;;;;5062359;28;20056;-65
2023/08/03 12:14:11;;;;;;;1.70;0.60;;;;;;;;;;5062864;28;20404;-63
2023/08/03 12:16:38;;;;;;;1.50;0.85;;;;;;;;;;5051993;28;20144;-63
2023/08/03 12:19:08;;;;;;;2.05;0.60;;;;;;;;;;5046222;28;20427;-65
2023/08/03 12:21:35;;;;;;;3.83;1.30;;;;;;;;;;5052130;28;20057;-66
2023/08/03 12:24:02;;;;;;;3.42;0.73;;;;;;;;;;5072910;28;20118;-65
2023/08/03 12:26:29;;;;;;;4.63;1.00;;;;;;;;;;5059895;28;20063;-60
2023/08/03 12:28:56;;;;;;;3.90;0.90;;;;;;;;;;5063352;28;20158;-60
2023/08/03 12:31:33;;;;;;;3.75;0.98;;;;;;;;;;5081806;28;20049;-63
2023/08/03 12:34:00;;;;;;;2.00;1.08;;;;;;;;;;5082058;28;20558;-62
2023/08/03 12:36:26;;;;;;;1.45;0.60;;;;;;;;;;5065279;28;20155;-66
2023/08/03 12:38:53;;;;;;;1.25;0.68;;;;;;;;;;5052261;28;20049;-66
2023/08/03 12:41:20;;;;;;;1.27;0.77;;;;;;;;;;5055256;28;20061;-66
2023/08/03 12:43:46;;;;;;;1.83;0.82;;;;;;;;;;5059043;28;20122;-63
2023/08/03 12:46:13;;;;;;;7.07;1.40;;;;;;;;;;5064572;28;20479;-65
2023/08/03 12:48:39;;;;;;;1.35;0.80;;;;;;;;;;5065052;28;20052;-66
2023/08/03 12:51:06;;;;;;;2.78;0.93;;;;;;;;;;5065128;28;20088;-60
2023/08/03 12:53:34;;;;;;;4.97;1.25;;;;;;;;;;5064983;28;20570;-63
2023/08/03 12:56:01;;;;;;;3.15;1.13;;;;;;;;;;5062211;28;20092;-66
2023/08/03 12:58:27;;;;;;;0.98;0.73;;;;;;;;;;5065120;28;20472;-65
2023/08/03 13:00:57;;;;;;;2.50;1.13;;;;;;;;;;5064409;28;20049;-65
2023/08/03 13:03:23;;;;;;;2.15;0.93;;;;;;;;;;5056100;28;20085;-61
2023/08/03 13:05:50;;;;;;;3.42;1.20;;;;;;;;;;5061286;28;20059;-63
2023/08/03 13:08:18;;;;;;;2.80;1.20;;;;;;;;;;5064773;28;20049;-64
2023/08/03 13:10:45;;;;;;;4.55;1.13;;;;;;;;;;5065021;28;20053;-64
2023/08/03 13:13:12;;;;;;;1.98;0.85;;;;;;;;;;5050420;28;20096;-65
2023/08/03 13:15:39;;;;;;;2.38;1.35;;;;;;;;;;5064622;28;20431;-64
2023/08/03 13:18:05;;;;;;;2.58;1.00;;;;;;;;;;5064114;28;20060;-66
2023/08/03 13:20:32;;;;;;;6.03;1.30;;;;;;;;;;5065206;28;20259;-64
2023/08/03 13:22:59;;;;;;;3.30;1.20;;;;;;;;;;5064630;28;20049;-65
2023/08/03 13:25:26;;;;;;;4.30;1.17;;;;;;;;;;5064351;28;20048;-65
2023/08/03 13:27:52;;;;;;;4.22;1.33;;;;;;;;;;5063616;28;20246;-66
2023/08/03 13:30:20;;;;;;;3.30;1.20;;;;;;;;;;5059242;28;20049;-61
2023/08/03 13:32:46;;;;;;;2.50;1.15;;;;;;;;;;5056141;28;20057;-63
2023/08/03 13:35:13;;;;;;;3.50;1.30;;;;;;;;;;5060510;28;20052;-62
2023/08/03 13:37:39;;;;;;;3.90;1.38;;;;;;;;;;5064435;28;20582;-67
2023/08/03 13:40:08;;;;;;;9.93;1.67;;;;;;;;;;5065316;28;20064;-65
2023/08/03 13:42:35;;;;;;;3.15;1.30;;;;;;;;;;5062248;28;20049;-63
2023/08/03 13:45:01;;;;;;;2.55;1.17;;;;;;;;;;5064408;28;20056;-67
2023/08/03 13:47:28;;;;;;;3.47;1.35;;;;;;;;;;5051708;28;20136;-66
2023/08/03 13:49:54;;;;;;;3.75;1.40;;;;;;;;;;5050711;28;20049;-67
2023/08/03 13:52:21;;;;;;;2.25;1.08;;;;;;;;;;5063216;28;20337;-67
2023/08/03 13:54:47;;;;;;;2.88;0.90;;;;;;;;;;5064141;28;20056;-66
2023/08/03 13:57:15;;;;;;;6.10;2.10;;;;;;;;;;5064715;28;20107;-65
2023/08/03 14:00:00;;;;;;;3.05;1.40;;;;;;;;;;5066738;28;20102;-66
2023/08/03 14:02:28;;;;;;;3.30;0.90;;;;;;;;;;5057259;28;20056;-67
2023/08/03 14:04:58;;;;;;;3.75;0.93;;;;;;;;;;5060259;28;20057;-67
2023/08/03 14:07:28;;;;;;;3.85;0.95;;;;;;;;;;5064403;28;20132;-62
2023/08/03 14:10:00;;;;;;;3.67;1.25;;;;;;;;;;5064040;28;20148;-67
2023/08/03 14:12:29;;;;;;;4.10;1.40;;;;;;;;;;5060939;28;20560;-66
2023/08/03 14:15:16;;;;;;;2.55;1.00;;;;;;;;;;5059586;28;20143;-62
2023/08/03 14:17:45;;;;;;;2.65;1.30;;;;;;;;;;5042745;28;20108;-62
2023/08/03 14:20:16;;;;;;;4.43;1.40;;;;;;;;;;5042265;28;20061;-60
2023/08/03 14:22:46;;;;;;;4.35;1.48;;;;;;;;;;5062857;28;20148;-63
2023/08/03 14:25:18;;;;;;;4.97;1.67;;;;;;;;;;5064967;28;20052;-66
2023/08/03 14:27:48;;;;;;;4.03;1.67;;;;;;;;;;5058256;28;20515;-67
2023/08/03 14:30:18;;;;;;;7.22;1.70;;;;;;;;;;5062731;28;20188;-67
2023/08/03 14:32:46;;;;;;;3.50;1.60;;;;;;;;;;5059849;28;20048;-62
2023/08/03 14:35:13;;;;;;;2.60;1.55;;;;;;;;;;5063310;28;20227;-67
2023/08/03 14:37:43;;;;;;;7.47;1.77;;;;;;;;;;5062748;28;20143;-65
2023/08/03 14:40:09;;;;;;;2.55;1.55;;;;;;;;;;5063238;28;20107;-62
2023/08/03 14:42:35;;;;;;;7.68;2.00;;;;;;;;;;5044912;28;20157;-64
2023/08/03 14:45:02;;;;;;;4.38;1.90;;;;;;;;;;5050053;28;20049;-63